createdAt,value
2023-02-23T00:04:27.126Z,89.77
2023-02-23T00:09:27.092Z,90.18
2023-02-23T00:14:27.013Z,90.73
2023-02-23T00:19:26.944Z,90.94
2023-02-23T00:24:26.995Z,91.40
2023-02-23T00:29:26.827Z,91.71
2023-02-23T00:34:26.761Z,91.91
2023-02-23T00:39:26.782Z,92.27
2023-02-23T00:44:26.630Z,92.68
2023-02-23T00:49:26.608Z,92.78
2023-02-23T00:54:26.514Z,92.78
2023-02-23T00:59:26.427Z,92.68
2023-02-23T01:04:26.409Z,92.47
2023-02-23T01:09:26.284Z,92.27
2023-02-23T01:14:26.290Z,91.91
2023-02-23T01:19:26.167Z,91.50
2023-02-23T01:24:26.130Z,91.19
2023-02-23T01:29:26.028Z,90.99
2023-02-23T01:34:25.949Z,90.78
2023-02-23T01:39:25.897Z,90.67
2023-02-23T01:44:25.822Z,90.67
2023-02-23T01:49:25.769Z,90.78
2023-02-23T01:54:25.687Z,90.12
2023-02-23T01:59:25.620Z,89.87
2023-02-23T02:04:25.572Z,88.95
2023-02-23T02:09:25.494Z,88.39
2023-02-23T02:14:25.429Z,88.18
2023-02-23T02:19:25.369Z,88.29
2023-02-23T02:24:25.329Z,88.18
2023-02-23T02:29:29.370Z,88.08
2023-02-23T02:34:25.190Z,88.29
2023-02-23T02:39:25.105Z,88.08
2023-02-23T02:44:25.039Z,87.98
2023-02-23T02:49:24.972Z,88.08
2023-02-23T02:54:24.949Z,87.98
2023-02-23T02:59:24.863Z,88.08
2023-02-23T03:04:24.774Z,87.98
2023-02-23T03:09:24.707Z,87.84
2023-02-23T03:14:24.680Z,87.32
2023-02-23T03:19:24.612Z,87.32
2023-02-23T03:24:24.554Z,86.56
2023-02-23T03:29:24.482Z,86.80
2023-02-23T03:34:24.399Z,87.12
2023-02-23T03:39:24.352Z,87.52
2023-02-23T03:44:24.269Z,86.97
2023-02-23T03:49:24.204Z,86.56
2023-02-23T03:54:24.139Z,86.66
2023-02-23T03:59:24.056Z,86.87
2023-02-23T04:04:24.009Z,86.97
2023-02-23T04:09:23.940Z,87.42
2023-02-23T04:14:23.870Z,87.42
2023-02-23T04:19:23.804Z,87.32
2023-02-23T04:24:23.717Z,87.49
2023-02-23T04:29:23.660Z,87.07
2023-02-23T04:34:23.609Z,86.87
2023-02-23T04:39:23.528Z,86.66
2023-02-23T04:44:23.470Z,86.77
2023-02-23T04:49:23.393Z,86.66
2023-02-23T04:54:23.344Z,86.56
2023-02-23T04:59:23.273Z,86.77
2023-02-23T05:04:23.215Z,86.35
2023-02-23T05:09:23.158Z,86.46
2023-02-23T05:14:23.073Z,86.77
2023-02-23T05:19:23.034Z,87.01
2023-02-23T05:24:22.980Z,87.84
2023-02-23T05:29:22.864Z,87.73
2023-02-23T05:34:22.815Z,88.24
2023-02-23T05:39:22.740Z,88.24
2023-02-23T05:44:22.683Z,88.49
2023-02-23T05:49:22.614Z,88.90
2023-02-23T05:54:22.550Z,88.59
2023-02-23T05:59:22.505Z,89.05
2023-02-23T06:04:22.403Z,90.18
2023-02-23T06:09:22.349Z,90.18
2023-02-23T06:14:22.290Z,90.18
2023-02-23T06:19:22.223Z,89.97
2023-02-23T06:24:22.194Z,89.97
2023-02-23T06:29:22.077Z,89.31
2023-02-23T06:34:22.040Z,89.01
2023-02-23T06:39:21.952Z,89.22
2023-02-23T06:44:21.876Z,88.76
2023-02-23T06:49:21.814Z,87.94
2023-02-23T06:54:21.765Z,87.49
2023-02-23T06:59:21.675Z,87.49
2023-02-23T07:04:21.705Z,86.66
2023-02-23T07:09:21.558Z,86.11
2023-02-23T07:14:26.717Z,85.46
2023-02-23T07:19:22.480Z,84.94
2023-02-23T07:24:21.370Z,84.28
2023-02-23T07:29:21.314Z,83.67
2023-02-23T07:34:21.267Z,83.63
2023-02-23T07:39:21.162Z,82.46
2023-02-23T07:44:21.125Z,82.26
2023-02-23T07:49:21.057Z,81.40
2023-02-23T07:54:20.993Z,80.95
2023-02-23T07:59:20.999Z,81.05
2023-02-23T08:04:20.894Z,80.30
2023-02-23T08:09:20.788Z,79.58
2023-02-23T08:14:20.766Z,79.03
2023-02-23T08:19:20.649Z,78.79
2023-02-23T08:24:20.623Z,77.32
2023-02-23T08:29:20.527Z,77.94
2023-02-23T08:34:20.467Z,76.81
2023-02-23T08:39:20.387Z,76.57
2023-02-23T08:44:20.341Z,76.12
2023-02-23T08:49:20.271Z,75.78
2023-02-23T08:54:20.192Z,75.65
2023-02-23T08:59:20.114Z,74.42
2023-02-23T09:04:20.075Z,74.29
2023-02-23T09:09:19.991Z,73.77
2023-02-23T09:14:19.965Z,74.59
2023-02-23T09:19:19.857Z,73.77
2023-02-23T09:24:19.796Z,73.98
2023-02-23T09:29:19.718Z,74.15
2023-02-23T09:34:19.696Z,73.03
2023-02-23T09:39:29.137Z,72.65
2023-02-23T09:44:20.552Z,72.58
2023-02-23T09:49:19.434Z,71.19
2023-02-23T09:54:19.380Z,70.51
2023-02-23T09:59:19.335Z,69.33
2023-02-23T10:04:19.266Z,67.97
2023-02-23T10:09:19.218Z,67.13
2023-02-23T10:14:19.158Z,66.39
2023-02-23T10:19:19.043Z,66.23
2023-02-23T10:24:18.988Z,65.25
2023-02-23T10:29:18.938Z,63.73
2023-02-23T10:34:18.870Z,63.73
2023-02-23T10:39:18.805Z,64.88
2023-02-23T10:44:18.736Z,65.15
2023-02-23T10:49:18.671Z,64.75
2023-02-23T10:54:18.633Z,63.20
2023-02-23T10:59:18.564Z,63.50
2023-02-23T11:04:19.064Z,63.70
2023-02-23T11:09:18.461Z,63.20
2023-02-23T11:14:18.349Z,63.70
2023-02-23T11:19:18.301Z,62.63
2023-02-23T11:24:18.244Z,62.12
2023-02-23T11:29:18.139Z,61.99
2023-02-23T11:34:18.113Z,61.59
2023-02-23T11:39:18.043Z,61.36
2023-02-23T11:44:18.001Z,60.72
2023-02-23T11:49:17.890Z,60.19
2023-02-23T11:54:17.827Z,60.39
2023-02-23T11:59:17.754Z,60.22
2023-02-23T12:04:17.686Z,59.38
2023-02-23T12:09:17.604Z,59.91
2023-02-23T12:14:17.546Z,60.25
2023-02-23T12:19:17.482Z,61.05
2023-02-23T12:24:17.405Z,61.43
2023-02-23T12:29:17.334Z,61.16
2023-02-23T12:34:17.311Z,61.73
2023-02-23T12:39:17.203Z,60.82
2023-02-23T12:44:17.153Z,61.33
2023-02-23T12:49:17.113Z,61.05
2023-02-23T12:54:17.005Z,61.05
2023-02-23T12:59:16.961Z,61.66
2023-02-23T13:04:16.889Z,62.16
2023-02-23T13:09:16.838Z,61.76
2023-02-23T13:14:16.775Z,61.87
2023-02-23T13:19:16.704Z,61.23
2023-02-23T13:24:16.670Z,61.03
2023-02-23T13:29:16.577Z,60.80
2023-02-23T13:34:16.509Z,60.39
2023-02-23T13:39:18.996Z,60.39
2023-02-23T13:44:16.411Z,62.07
2023-02-23T13:49:16.303Z,64.38
2023-02-23T13:54:16.254Z,65.93
2023-02-23T13:59:16.213Z,67.18
2023-02-23T14:04:16.112Z,68.02
2023-02-23T14:09:16.046Z,68.56
2023-02-23T14:14:15.981Z,69.78
2023-02-23T14:19:15.898Z,70.42
2023-02-23T14:24:15.881Z,71.13
2023-02-23T14:29:15.809Z,72.17
2023-02-23T14:34:15.740Z,73.33
2023-02-23T14:39:15.636Z,74.04
2023-02-23T14:44:28.350Z,74.58
2023-02-23T14:49:16.536Z,75.29
2023-02-23T14:54:15.506Z,76.21
2023-02-23T14:59:15.623Z,78.38
2023-02-23T15:04:15.414Z,79.94
2023-02-23T15:09:15.272Z,81.71
2023-02-23T15:14:26.826Z,84.25
2023-02-23T15:19:16.112Z,85.11
2023-02-23T15:24:15.048Z,85.92
2023-02-23T15:29:14.987Z,86.88
2023-02-23T15:34:14.923Z,88.61
2023-02-23T15:39:14.852Z,88.61
2023-02-23T15:44:14.809Z,88.10
2023-02-23T15:49:14.780Z,88.31
2023-02-23T15:54:14.674Z,87.79
2023-02-23T15:59:14.631Z,87.94
2023-02-23T16:04:14.577Z,90.73
2023-02-23T16:09:14.498Z,91.24
2023-02-23T16:14:14.409Z,92.10
2023-02-23T16:19:14.339Z,92.71
2023-02-23T16:24:14.292Z,93.32
2023-02-23T16:29:14.253Z,92.91
2023-02-23T16:34:14.205Z,93.98
2023-02-23T16:39:14.072Z,94.29
2023-02-23T16:44:14.016Z,93.67
2023-02-23T16:49:13.945Z,93.26
2023-02-23T16:54:13.931Z,93.32
2023-02-23T16:59:13.863Z,93.32
2023-02-23T17:04:13.777Z,92.91
2023-02-23T17:09:13.834Z,93.37
2023-02-23T17:14:13.639Z,94.74
2023-02-23T17:19:13.545Z,95.15
2023-02-23T17:24:13.521Z,95.31
2023-02-23T17:29:13.439Z,95.76
2023-02-23T17:34:13.399Z,96.06
2023-02-23T17:39:13.297Z,96.68
2023-02-23T17:44:13.640Z,96.78
2023-02-23T17:49:13.139Z,96.98
2023-02-23T17:54:13.198Z,97.39
2023-02-23T17:59:13.035Z,97.44
2023-02-23T18:04:12.991Z,97.85
2023-02-23T18:09:12.889Z,97.95
2023-02-23T18:14:12.864Z,98.15
2023-02-23T18:19:12.753Z,98.56
2023-02-23T18:24:12.803Z,98.86
2023-02-23T18:29:12.679Z,98.40
2023-02-23T18:34:12.579Z,98.35
2023-02-23T18:39:12.489Z,97.33
2023-02-23T18:44:12.413Z,97.22
2023-02-23T18:49:12.373Z,97.16
2023-02-23T18:54:12.305Z,97.78
2023-02-23T18:59:12.213Z,98.29
2023-02-23T19:04:12.163Z,98.19
2023-02-23T19:09:12.101Z,98.80
2023-02-23T19:14:12.040Z,99.31
2023-02-23T19:19:11.995Z,99.93
2023-02-23T19:24:11.926Z,99.99
2023-02-23T19:29:11.908Z,99.99
2023-02-23T19:34:11.780Z,99.99
2023-02-23T19:39:11.714Z,99.99
2023-02-23T19:44:11.672Z,99.99
2023-02-23T19:49:11.596Z,99.99
2023-02-23T19:54:11.536Z,99.99
2023-02-23T19:59:11.509Z,99.99
2023-02-23T20:04:11.395Z,99.99
2023-02-23T20:09:11.447Z,99.99
2023-02-23T20:14:11.272Z,99.99
2023-02-23T20:19:11.292Z,99.99
2023-02-23T20:24:11.149Z,99.99
2023-02-23T20:29:11.440Z,99.99
2023-02-23T20:34:11.131Z,99.99
2023-02-23T20:39:10.904Z,99.99
2023-02-23T20:44:10.978Z,99.99
2023-02-23T20:49:10.791Z,99.99
2023-02-23T20:54:10.778Z,99.99
2023-02-23T20:59:10.663Z,99.99
2023-02-23T21:04:10.624Z,99.99
2023-02-23T21:09:10.527Z,99.99
2023-02-23T21:14:10.452Z,99.99
2023-02-23T21:19:11.413Z,99.99
2023-02-23T21:24:10.332Z,99.99
2023-02-23T21:29:10.254Z,99.99
2023-02-23T21:34:10.203Z,99.99
2023-02-23T21:39:10.169Z,99.99
2023-02-23T21:44:10.088Z,99.99
2023-02-23T21:49:10.155Z,99.99
2023-02-23T21:54:09.966Z,99.99
2023-02-23T21:59:09.868Z,99.82
2023-02-23T22:04:09.810Z,99.45
2023-02-23T22:09:09.765Z,99.45
2023-02-23T22:14:09.687Z,98.37
2023-02-23T22:19:09.700Z,98.78
2023-02-23T22:24:09.542Z,99.44
2023-02-23T22:29:09.513Z,99.85
2023-02-23T22:34:09.400Z,99.99
2023-02-23T22:39:09.345Z,99.99
2023-02-23T22:44:09.313Z,99.99
2023-02-23T22:49:09.206Z,99.99
2023-02-23T22:54:13.197Z,99.99
2023-02-23T22:59:09.093Z,99.99
2023-02-23T23:04:09.075Z,99.99
2023-02-23T23:09:08.962Z,99.99
2023-02-23T23:14:08.857Z,99.99
2023-02-23T23:19:08.864Z,99.99
2023-02-23T23:24:08.757Z,99.99
2023-02-23T23:29:08.685Z,99.99
2023-02-23T23:34:08.601Z,99.99
2023-02-23T23:39:08.559Z,99.99
2023-02-23T23:44:08.473Z,99.99
2023-02-23T23:49:08.396Z,99.99
2023-02-23T23:54:08.375Z,99.99
2023-02-23T23:59:08.248Z,99.99
